Time;durP1;ratioP1;P1;durP2;ratioP2;P2;SDS_P1;SDS_P2;PMS_P1;PMS_P2;Temp;Humidity;BMP_temperature;BMP_pressure;BME280_temperature;BME280_humidity;BME280_pressure;Samples;Min_cycle;Max_cycle;Signal;HPM_P1;HPM_P2
2021/08/23 00:00:58;;;;;;;19.00;11.73;;;;;;;17.46;60.11;99790.92;1766826;80;21012;-44
2021/08/23 00:03:25;;;;;;;16.67;10.78;;;;;;;17.42;60.11;99788.00;1781905;80;20957;-44
2021/08/23 00:05:51;;;;;;;18.00;11.78;;;;;;;17.39;59.99;99790.92;1780148;80;21866;-43
2021/08/23 00:08:19;;;;;;;17.95;10.82;;;;;;;17.34;60.05;99792.11;1779043;80;21512;-43
2021/08/23 00:10:46;;;;;;;17.35;10.70;;;;;;;17.30;60.07;99796.03;1766965;80;21833;-43
2021/08/23 00:13:12;;;;;;;17.95;11.22;;;;;;;17.24;60.21;99790.75;1759476;80;20963;-43
2021/08/23 00:15:40;;;;;;;17.75;11.22;;;;;;;17.21;60.45;99787.44;1751347;81;21042;-43
2021/08/23 00:18:08;;;;;;;14.95;10.45;;;;;;;17.19;60.63;99791.93;1769046;80;21003;-43
2021/08/23 00:20:50;;;;;;;15.65;10.30;;;;;;;17.19;60.63;99791.14;1747172;81;21079;-43
2021/08/23 00:23:10;;;;;;;21.90;11.18;;;;;;;17.20;60.61;99785.28;1713780;83;21590;-43
2021/08/23 00:25:34;;;;;;;18.10;10.78;;;;;;;17.21;60.58;99786.85;1688662;83;21053;-44
2021/08/23 00:28:02;;;;;;;16.10;9.95;;;;;;;17.19;60.48;99785.66;1714326;83;20946;-44
2021/08/23 00:30:30;;;;;;;17.02;10.60;;;;;;;17.18;60.51;99784.12;1706290;83;21035;-43
2021/08/23 00:32:56;;;;;;;15.38;10.85;;;;;;;17.17;60.60;99781.19;1718673;82;21053;-44
2021/08/23 00:35:24;;;;;;;14.05;10.23;;;;;;;17.16;60.44;99785.09;1662751;85;21167;-43
2021/08/23 00:37:51;;;;;;;15.75;10.82;;;;;;;17.13;60.46;99779.04;1694735;82;20977;-43
2021/08/23 00:40:18;;;;;;;15.60;10.82;;;;;;;17.10;60.49;99784.70;1718863;83;21543;-44
2021/08/23 00:42:45;;;;;;;16.10;10.70;;;;;;;17.05;60.59;99782.36;1711528;83;20984;-43
2021/08/23 00:45:13;;;;;;;17.07;11.75;;;;;;;17.00;60.68;99781.96;1715460;83;21515;-43
2021/08/23 00:47:39;;;;;;;16.15;11.22;;;;;;;16.95;60.82;99782.55;1715567;83;21543;-43
2021/08/23 00:50:09;;;;;;;19.92;11.28;;;;;;;16.93;61.08;99778.66;1707333;83;21052;-43
2021/08/23 00:52:36;;;;;;;16.37;10.85;;;;;;;16.90;61.24;99773.36;1726922;82;21016;-43
2021/08/23 00:55:04;;;;;;;17.00;10.28;;;;;;;16.88;61.18;99775.72;1732505;81;21032;-43
2021/08/23 00:57:31;;;;;;;15.43;11.05;;;;;;;16.91;61.02;99779.63;1713264;82;21092;-43
2021/08/23 00:59:57;;;;;;;15.38;11.05;;;;;;;16.93;60.94;99780.02;1704398;83;21169;-43
2021/08/23 01:02:49;;;;;;;14.85;10.38;;;;;;;16.98;60.98;99788.44;1670441;84;21030;-43
2021/08/23 01:05:25;;;;;;;13.88;10.98;;;;;;;17.00;60.90;99784.70;1697152;84;20985;-43
2021/08/23 01:08:00;;;;;;;16.75;11.43;;;;;;;16.97;60.97;99782.76;1700500;84;21045;-43
2021/08/23 01:10:37;;;;;;;15.72;10.72;;;;;;;16.92;61.01;99779.83;1704423;83;21060;-43
2021/08/23 01:13:07;;;;;;;16.12;11.15;;;;;;;16.84;60.95;99786.48;1735564;82;21068;-44
2021/08/23 01:15:36;;;;;;;17.05;11.20;;;;;;;16.72;61.12;99786.27;1709414;82;21017;-43
2021/08/23 01:18:03;;;;;;;18.45;11.88;;;;;;;16.59;61.47;99783.72;1678759;85;21101;-43
2021/08/23 01:20:36;;;;;;;15.58;11.63;;;;;;;16.46;61.74;99786.00;1684814;83;21353;-43
2021/08/23 01:23:03;;;;;;;17.10;11.78;;;;;;;16.37;61.98;99781.48;1727826;82;21040;-43
2021/08/23 01:25:33;;;;;;;19.60;11.15;;;;;;;16.28;62.23;99782.45;1747775;81;21152;-43
2021/08/23 01:28:13;;;;;;;16.12;9.98;;;;;;;16.26;62.39;99784.02;1751468;81;21020;-43
2021/08/23 01:30:54;;;;;;;16.35;10.55;;;;;;;16.27;62.60;99785.56;1753450;81;21044;-43
2021/08/23 01:33:20;;;;;;;15.75;10.82;;;;;;;16.22;62.92;99784.57;1743748;82;21895;-43
2021/08/23 01:35:47;;;;;;;16.67;11.53;;;;;;;16.13;63.12;99782.78;1746451;82;21017;-44
2021/08/23 01:38:13;;;;;;;20.92;12.03;;;;;;;15.99;63.35;99784.31;1727332;82;21105;-43
2021/08/23 01:40:40;;;;;;;16.42;12.10;;;;;;;15.89;63.61;99782.31;1721044;83;21024;-43
2021/08/23 01:43:07;;;;;;;20.75;11.33;;;;;;;15.85;63.75;99784.26;1738632;82;21013;-43
2021/08/23 01:45:33;;;;;;;16.42;10.93;;;;;;;15.79;63.81;99782.27;1754019;80;21038;-43
2021/08/23 01:48:00;;;;;;;14.55;10.75;;;;;;;15.80;63.92;99777.80;1732136;81;21041;-43
2021/08/23 01:50:27;;;;;;;12.98;9.83;;;;;;;15.91;63.79;99773.73;1751155;81;21532;-43
2021/08/23 01:52:53;;;;;;;13.98;10.10;;;;;;;16.04;63.54;99771.64;1746244;81;20997;-43
2021/08/23 01:55:20;;;;;;;16.32;10.85;;;;;;;16.16;63.27;99766.98;1757382;81;21053;-43
2021/08/23 01:57:46;;;;;;;16.90;10.50;;;;;;;16.24;62.90;99767.20;1769432;80;21004;-44
2021/08/23 02:00:15;;;;;;;14.47;10.20;;;;;;;16.29;62.66;99775.81;1767996;80;21546;-44
2021/08/23 02:02:41;;;;;;;16.90;11.22;;;;;;;16.33;62.87;99780.70;1742912;80;21093;-44
2021/08/23 02:05:09;;;;;;;15.95;11.63;;;;;;;16.24;62.72;99774.03;1773523;80;21032;-43
2021/08/23 02:07:35;;;;;;;17.23;11.78;;;;;;;16.19;62.74;99775.20;1767882;80;21009;-44
2021/08/23 02:10:06;;;;;;;15.60;11.25;;;;;;;16.16;62.57;99782.03;1719555;82;21057;-43
2021/08/23 02:12:32;;;;;;;14.98;11.18;;;;;;;16.07;62.70;99780.42;1772939;80;21032;-43
2021/08/23 02:14:59;;;;;;;14.03;10.60;;;;;;;15.97;62.87;99774.36;1770756;80;21552;-43
2021/08/23 02:17:26;;;;;;;15.23;10.38;;;;;;;15.85;63.32;99778.80;1768654;80;20977;-43
2021/08/23 02:19:52;;;;;;;15.75;10.43;;;;;;;15.72;63.67;99781.67;1773714;80;21054;-43
2021/08/23 02:22:19;;;;;;;15.83;10.38;;;;;;;15.71;63.92;99782.83;1773346;80;21021;-43
2021/08/23 02:24:45;;;;;;;17.07;10.50;;;;;;;15.64;64.13;99779.47;1772016;80;21068;-43
2021/08/23 02:27:12;;;;;;;15.75;10.60;;;;;;;15.58;64.35;99777.50;1759513;80;21213;-43
2021/08/23 02:29:38;;;;;;;13.70;11.12;;;;;;;15.51;64.66;99780.18;1756572;80;21084;-43
2021/08/23 02:32:06;;;;;;;13.98;10.78;;;;;;;15.45;64.92;99784.40;1756176;80;21554;-44
2021/08/23 02:34:33;;;;;;;17.05;10.90;;;;;;;15.39;65.13;99788.67;1746051;80;21045;-43
2021/08/23 02:36:59;;;;;;;12.75;9.18;;;;;;;15.34;65.22;99782.99;1751659;80;21452;-43
2021/08/23 02:39:27;;;;;;;13.58;10.20;;;;;;;15.34;65.35;99791.77;1755481;80;21128;-43
2021/08/23 02:41:54;;;;;;;13.98;10.78;;;;;;;15.35;65.32;99793.31;1750161;80;21021;-43
2021/08/23 02:44:21;;;;;;;15.05;10.85;;;;;;;15.29;65.43;99788.02;1743018;82;21563;-43
2021/08/23 02:46:49;;;;;;;15.23;11.33;;;;;;;15.25;65.68;99794.05;1762672;80;21037;-43
2021/08/23 02:49:16;;;;;;;16.60;11.28;;;;;;;15.32;65.50;99791.35;1774042;80;21049;-43
2021/08/23 02:51:44;;;;;;;16.00;10.58;;;;;;;15.40;65.32;99791.59;1773651;80;21810;-43
2021/08/23 02:54:11;;;;;;;14.98;10.32;;;;;;;15.49;65.22;99792.06;1749999;80;21041;-44
2021/08/23 02:56:38;;;;;;;13.30;9.78;;;;;;;15.52;65.19;99789.38;1760707;80;21078;-44
2021/08/23 02:59:05;;;;;;;15.10;9.68;;;;;;;15.62;64.95;99793.33;1764780;80;21069;-43
2021/08/23 03:01:32;;;;;;;14.13;9.78;;;;;;;15.74;64.72;99793.56;1764399;80;21556;-44
2021/08/23 03:03:58;;;;;;;14.80;10.50;;;;;;;15.83;64.57;99785.83;1752824;80;21129;-44
2021/08/23 03:06:25;;;;;;;17.15;10.35;;;;;;;15.88;64.44;99795.78;1742999;80;20981;-44
2021/08/23 03:08:52;;;;;;;13.20;10.05;;;;;;;15.94;64.38;99800.30;1764650;80;20990;-44
2021/08/23 03:11:18;;;;;;;12.95;9.53;;;;;;;15.98;64.35;99795.63;1770322;80;21080;-44
2021/08/23 03:13:45;;;;;;;14.83;10.05;;;;;;;16.03;64.21;99791.94;1769838;80;21021;-44
2021/08/23 03:16:12;;;;;;;16.67;10.63;;;;;;;16.06;64.23;99787.67;1751738;80;21153;-44
2021/08/23 03:18:39;;;;;;;14.03;10.65;;;;;;;16.08;64.10;99794.30;1764398;80;21072;-44
2021/08/23 03:21:06;;;;;;;15.40;9.95;;;;;;;16.09;64.01;99793.14;1758782;80;20957;-44
2021/08/23 03:23:34;;;;;;;13.08;9.15;;;;;;;16.11;63.84;99796.08;1749772;80;21029;-44
2021/08/23 03:26:02;;;;;;;13.85;9.20;;;;;;;16.18;63.82;99799.61;1765625;80;21021;-44
2021/08/23 03:28:28;;;;;;;11.80;9.65;;;;;;;16.26;63.79;99797.70;1767317;80;21091;-44
2021/08/23 03:30:55;;;;;;;15.35;10.08;;;;;;;16.33;63.54;99803.17;1766674;80;21012;-44
2021/08/23 03:33:22;;;;;;;13.93;10.78;;;;;;;16.38;63.48;99802.80;1737622;80;21472;-43
2021/08/23 03:35:48;;;;;;;12.10;10.35;;;;;;;16.42;63.21;99804.95;1722196;82;20967;-44
2021/08/23 03:38:15;;;;;;;15.28;10.05;;;;;;;16.46;63.06;99801.63;1767936;80;21105;-44
2021/08/23 03:40:41;;;;;;;16.70;10.20;;;;;;;16.50;62.88;99810.66;1756223;80;21117;-44
2021/08/23 03:43:08;;;;;;;13.78;10.05;;;;;;;16.53;62.81;99816.13;1764398;80;20922;-44
2021/08/23 03:45:35;;;;;;;14.03;9.93;;;;;;;16.56;62.77;99820.03;1771230;80;21021;-44
2021/08/23 03:48:01;;;;;;;15.93;10.13;;;;;;;16.59;62.78;99817.94;1768732;80;21495;-44
2021/08/23 03:50:28;;;;;;;12.75;9.65;;;;;;;16.59;62.83;99818.52;1773543;80;20998;-44
2021/08/23 03:52:54;;;;;;;10.93;8.40;;;;;;;16.57;62.77;99816.72;1770902;80;21095;-44
2021/08/23 03:55:22;;;;;;;12.60;9.80;;;;;;;16.57;62.40;99809.87;1758405;80;20938;-44
2021/08/23 03:57:49;;;;;;;13.88;9.95;;;;;;;16.57;62.26;99810.66;1772552;80;20957;-44
2021/08/23 04:00:16;;;;;;;12.95;10.08;;;;;;;16.55;62.31;99813.02;1771216;80;21527;-44
2021/08/23 04:02:45;;;;;;;13.45;9.33;;;;;;;16.48;62.44;99804.78;1772774;80;21069;-43
2021/08/23 04:05:11;;;;;;;15.88;9.80;;;;;;;16.59;62.41;99815.78;1772622;80;21152;-44
2021/08/23 04:07:38;;;;;;;21.30;15.75;;;;;;;16.55;62.57;99821.81;1773565;80;20886;-43
2021/08/23 04:12:07;;;;;;;38.48;25.52;;;;;;;16.36;62.68;99806.52;1775833;79;22752;-43
2021/08/23 04:14:34;;;;;;;28.80;19.05;;;;;;;16.19;62.89;99808.61;1750840;81;20941;-43
2021/08/23 04:17:02;;;;;;;26.45;19.10;;;;;;;16.12;63.04;99805.86;1746072;81;21484;-43
2021/08/23 04:19:30;;;;;;;22.75;16.20;;;;;;;16.07;63.38;99803.67;1724836;81;20933;-43
2021/08/23 04:21:57;;;;;;;21.12;13.62;;;;;;;16.06;63.56;99814.44;1739173;81;20981;-43
2021/08/23 04:24:24;;;;;;;16.23;11.28;;;;;;;16.03;63.88;99815.19;1748926;81;20968;-43
2021/08/23 04:26:50;;;;;;;14.30;10.98;;;;;;;16.02;63.76;99819.08;1739446;81;20933;-43
2021/08/23 04:29:17;;;;;;;18.40;10.95;;;;;;;16.05;64.14;99819.70;1750034;82;21104;-43
2021/08/23 04:31:44;;;;;;;14.60;11.75;;;;;;;16.15;64.46;99818.76;1748904;82;20977;-43
2021/08/23 04:34:10;;;;;;;19.23;11.80;;;;;;;16.22;64.33;99818.77;1748794;82;20976;-43
2021/08/23 04:36:38;;;;;;;17.42;11.60;;;;;;;16.25;64.47;99826.22;1728212;81;21059;-43
2021/08/23 04:39:04;;;;;;;12.90;10.53;;;;;;;16.26;64.32;99820.38;1756214;81;20989;-43
2021/08/23 04:41:38;;;;;;;16.62;11.22;;;;;;;16.24;64.41;99819.17;1753705;81;21119;-44
2021/08/23 04:44:05;;;;;;;14.30;10.78;;;;;;;16.27;64.72;99817.02;1757876;81;20913;-43
2021/08/23 04:46:33;;;;;;;13.00;10.35;;;;;;;16.38;65.01;99817.84;1742742;81;21045;-43
2021/08/23 04:48:59;;;;;;;13.58;10.63;;;;;;;16.57;65.16;99818.08;1737604;81;20989;-43
2021/08/23 04:51:26;;;;;;;17.17;11.03;;;;;;;16.68;64.88;99823.81;1740293;82;21535;-43
2021/08/23 04:53:53;;;;;;;14.93;10.68;;;;;;;16.80;64.97;99819.91;1731221;82;21748;-43
2021/08/23 04:56:19;;;;;;;14.35;9.80;;;;;;;16.88;64.86;99813.28;1736654;81;21024;-43
2021/08/23 04:58:46;;;;;;;15.10;9.85;;;;;;;16.68;64.93;99769.64;1743560;81;20976;-43
2021/08/23 05:01:13;;;;;;;14.75;9.43;;;;;;;17.05;64.77;99817.18;1731786;81;21051;-43
2021/08/23 05:03:40;;;;;;;11.08;8.18;;;;;;;17.13;64.96;99819.55;1728577;80;21037;-43
2021/08/23 05:06:07;;;;;;;11.90;8.28;;;;;;;17.28;64.77;99820.33;1731349;81;21136;-43
2021/08/23 05:08:33;;;;;;;10.23;8.10;;;;;;;17.44;64.58;99815.78;1688839;84;20918;-44
2021/08/23 05:11:01;;;;;;;9.75;7.90;;;;;;;17.61;64.24;99825.98;1690148;84;21056;-43
2021/08/23 05:13:28;;;;;;;9.03;7.20;;;;;;;17.73;63.65;99830.44;1669753;85;20930;-43
2021/08/23 05:15:55;;;;;;;11.43;7.62;;;;;;;17.84;63.41;99830.41;1736054;82;21028;-43
2021/08/23 05:18:23;;;;;;;13.78;7.75;;;;;;;17.94;63.13;99832.34;1743916;82;21089;-43
2021/08/23 05:20:50;;;;;;;11.30;7.58;;;;;;;18.00;62.99;99827.23;1726839;80;20950;-44
2021/08/23 05:23:17;;;;;;;12.33;8.00;;;;;;;18.06;62.60;99828.36;1723275;82;21014;-43
2021/08/23 05:25:43;;;;;;;13.08;8.35;;;;;;;18.10;62.42;99825.05;1719276;82;21528;-43
2021/08/23 05:28:10;;;;;;;11.18;7.95;;;;;;;18.16;62.59;99826.17;1729936;82;21008;-43
2021/08/23 05:30:36;;;;;;;9.48;6.92;;;;;;;18.25;62.39;99823.77;1741810;82;21181;-44
2021/08/23 05:33:03;;;;;;;13.58;7.87;;;;;;;18.35;62.59;99819.44;1757573;81;20919;-44
2021/08/23 05:35:30;;;;;;;10.38;7.60;;;;;;;18.48;62.39;99813.08;1730177;81;21055;-43
2021/08/23 05:37:56;;;;;;;12.37;7.85;;;;;;;18.59;62.09;99820.67;1727382;80;21644;-44
2021/08/23 05:40:24;;;;;;;13.45;7.70;;;;;;;18.70;61.73;99814.33;1728008;82;21009;-43
2021/08/23 05:42:51;;;;;;;11.28;7.15;;;;;;;18.83;61.86;99814.06;1730103;82;21128;-43
2021/08/23 05:45:19;;;;;;;9.78;7.45;;;;;;;18.97;61.78;99819.45;1742088;82;21016;-44
2021/08/23 05:47:46;;;;;;;10.32;6.85;;;;;;;19.11;61.50;99813.84;1724448;82;21005;-44
2021/08/23 05:50:12;;;;;;;9.95;7.00;;;;;;;19.23;61.23;99813.32;1731894;82;21129;-44
2021/08/23 05:52:39;;;;;;;10.18;7.72;;;;;;;19.35;60.84;99816.95;1702570;84;21369;-44
2021/08/23 05:55:07;;;;;;;10.23;6.97;;;;;;;19.49;60.47;99816.84;1706910;84;21205;-44
2021/08/23 05:57:34;;;;;;;12.10;6.87;;;;;;;19.63;60.45;99816.51;1706992;84;21552;-44
2021/08/23 06:00:01;;;;;;;10.63;6.90;;;;;;;19.78;60.23;99809.08;1706803;84;21021;-44
2021/08/23 06:02:30;;;;;;;9.30;6.42;;;;;;;19.99;59.86;99812.77;1670548;84;21513;-44
2021/08/23 06:04:57;;;;;;;8.65;6.80;;;;;;;20.20;59.34;99806.39;1663041;83;21097;-44
2021/08/23 06:07:23;;;;;;;9.43;7.12;;;;;;;20.35;58.95;99800.12;1737872;80;21825;-43
2021/08/23 06:09:50;;;;;;;12.13;7.90;;;;;;;20.53;58.92;99802.62;1726782;81;20977;-44
2021/08/23 06:12:18;;;;;;;12.13;8.10;;;;;;;20.66;58.37;99795.36;1727378;82;20981;-44
2021/08/23 06:14:45;;;;;;;10.53;7.58;;;;;;;20.76;57.77;99802.69;1722449;82;21813;-44
2021/08/23 06:17:11;;;;;;;10.48;7.92;;;;;;;20.83;57.40;99802.56;1724018;82;21069;-44
2021/08/23 06:19:38;;;;;;;11.45;9.05;;;;;;;20.89;56.49;99810.54;1715893;82;21076;-44
2021/08/23 06:22:04;;;;;;;12.15;8.48;;;;;;;20.94;56.58;99808.69;1715891;82;21638;-44
2021/08/23 06:24:31;;;;;;;11.70;7.75;;;;;;;20.99;56.09;99806.84;1720338;82;21052;-44
2021/08/23 06:26:57;;;;;;;12.47;8.63;;;;;;;20.99;56.14;99806.84;1727984;80;20962;-44
2021/08/23 06:29:24;;;;;;;11.35;8.20;;;;;;;20.89;56.19;99796.77;1707812;82;21549;-44
2021/08/23 06:31:50;;;;;;;12.05;8.03;;;;;;;20.80;56.45;99796.52;1723526;82;21385;-44
2021/08/23 06:34:17;;;;;;;12.25;7.83;;;;;;;20.79;56.72;99799.09;1731078;82;21077;-44
2021/08/23 06:36:45;;;;;;;11.78;8.10;;;;;;;20.78;57.27;99807.16;1731265;82;21897;-44
2021/08/23 06:39:14;;;;;;;11.53;8.20;;;;;;;20.79;57.46;99808.13;1710673;82;21101;-43
2021/08/23 06:41:40;;;;;;;13.58;8.13;;;;;;;20.76;57.49;99815.09;1731252;82;21093;-44
2021/08/23 06:44:07;;;;;;;11.35;7.80;;;;;;;20.72;57.73;99809.61;1719280;82;21117;-44
2021/08/23 06:46:34;;;;;;;12.68;8.15;;;;;;;20.73;57.88;99804.88;1700436;84;20998;-44
2021/08/23 06:49:00;;;;;;;10.90;8.38;;;;;;;20.68;58.11;99800.62;1701985;84;20993;-44
2021/08/23 06:51:27;;;;;;;9.18;7.40;;;;;;;20.68;58.29;99803.97;1701333;84;20970;-43
2021/08/23 06:53:54;;;;;;;13.68;7.97;;;;;;;20.72;58.18;99796.45;1659060;85;21065;-44
2021/08/23 06:56:21;;;;;;;12.13;8.18;;;;;;;20.84;57.93;99806.88;1740617;82;21170;-44
2021/08/23 06:58:48;;;;;;;11.63;7.78;;;;;;;20.91;57.60;99807.38;1730213;82;21010;-44
2021/08/23 07:01:15;;;;;;;10.98;7.60;;;;;;;21.01;57.89;99805.80;1719455;82;21069;-44
2021/08/23 07:03:43;;;;;;;12.13;8.30;;;;;;;21.14;57.34;99805.44;1734516;82;21026;-43
2021/08/23 07:06:09;;;;;;;11.40;8.15;;;;;;;21.29;56.79;99799.67;1735911;82;21064;-43
2021/08/23 07:08:36;;;;;;;10.38;7.45;;;;;;;21.43;56.51;99805.72;1725816;82;21092;-43
2021/08/23 07:11:02;;;;;;;11.10;8.28;;;;;;;21.55;56.14;99811.20;1742265;82;20985;-44
2021/08/23 07:13:29;;;;;;;14.83;8.43;;;;;;;21.70;55.95;99808.36;1724019;82;20987;-44
2021/08/23 07:15:57;;;;;;;9.48;7.55;;;;;;;21.89;55.96;99813.70;1722178;80;21045;-44
2021/08/23 07:18:25;;;;;;;11.90;7.55;;;;;;;22.03;54.50;99811.47;1749110;80;21021;-44
2021/08/23 07:20:53;;;;;;;10.88;8.08;;;;;;;22.19;54.19;99809.97;1706075;82;21128;-44
2021/08/23 07:23:20;;;;;;;8.98;7.25;;;;;;;22.33;53.17;99820.11;1682897;85;21501;-44
2021/08/23 07:25:47;;;;;;;10.23;7.40;;;;;;;22.43;52.67;99811.41;1734458;82;20973;-44
2021/08/23 07:28:14;;;;;;;9.25;6.60;;;;;;;22.57;52.00;99821.36;1740945;82;21033;-44
2021/08/23 07:30:41;;;;;;;9.50;6.40;;;;;;;22.66;50.67;99821.55;1742466;82;21021;-44
2021/08/23 07:33:08;;;;;;;10.03;7.20;;;;;;;22.72;50.61;99819.27;1730577;82;21784;-44
2021/08/23 07:35:35;;;;;;;7.80;6.60;;;;;;;22.80;51.16;99826.17;1726497;82;21005;-43
2021/08/23 07:38:02;;;;;;;9.28;7.00;;;;;;;22.89;51.21;99823.61;1728710;82;21053;-44
2021/08/23 07:40:28;;;;;;;10.20;6.70;;;;;;;23.01;51.25;99824.11;1717485;83;21649;-44
2021/08/23 07:42:56;;;;;;;7.80;6.55;;;;;;;23.13;51.04;99823.44;1735024;80;21064;-44
2021/08/23 07:45:24;;;;;;;8.95;6.62;;;;;;;23.23;50.96;99823.78;1730252;82;21083;-44
2021/08/23 07:47:50;;;;;;;10.45;6.47;;;;;;;23.37;50.38;99822.03;1739835;80;20993;-44
2021/08/23 07:50:17;;;;;;;9.65;6.58;;;;;;;23.52;50.08;99821.86;1776157;80;20945;-44
2021/08/23 07:52:44;;;;;;;9.43;5.90;;;;;;;23.66;49.39;99825.63;1750866;80;20977;-44
2021/08/23 07:55:11;;;;;;;8.48;6.05;;;;;;;23.82;48.62;99820.63;1729645;82;21033;-44
2021/08/23 07:57:46;;;;;;;8.88;6.20;;;;;;;23.98;48.05;99830.88;1723605;82;21115;-44
2021/08/23 08:00:16;;;;;;;7.42;5.47;;;;;;;24.08;47.82;99828.42;1689918;84;21030;-44
2021/08/23 08:02:43;;;;;;;8.43;5.85;;;;;;;24.20;47.59;99826.33;1677537;85;21080;-43
2021/08/23 08:05:12;;;;;;;8.13;5.80;;;;;;;24.30;46.16;99831.39;1705778;84;21052;-44
2021/08/23 08:07:40;;;;;;;7.72;5.92;;;;;;;24.34;45.98;99834.22;1674693;84;21710;-44
2021/08/23 08:10:11;;;;;;;7.72;5.65;;;;;;;24.41;45.94;99836.77;1664080;85;20993;-44
2021/08/23 08:12:37;;;;;;;6.58;4.95;;;;;;;24.47;46.03;99829.46;1643848;84;21080;-44
2021/08/23 08:15:05;;;;;;;5.83;4.50;;;;;;;24.53;45.55;99829.08;1734674;81;20997;-44
2021/08/23 08:17:31;;;;;;;4.85;4.10;;;;;;;24.58;44.85;99827.14;1725437;83;21061;-43
2021/08/23 08:19:58;;;;;;;6.15;4.25;;;;;;;24.69;43.87;99823.41;1725701;83;20930;-43
2021/08/23 08:22:24;;;;;;;8.05;4.37;;;;;;;24.83;43.09;99831.14;1725943;83;21164;-43
2021/08/23 08:24:51;;;;;;;5.55;4.10;;;;;;;24.97;42.97;99825.16;1725559;82;20965;-43
2021/08/23 08:27:18;;;;;;;8.05;4.50;;;;;;;25.13;43.31;99826.39;1726501;81;21104;-43
2021/08/23 08:29:45;;;;;;;4.10;3.60;;;;;;;25.32;43.18;99822.58;1714063;83;21025;-43
2021/08/23 08:32:12;;;;;;;8.45;4.45;;;;;;;25.54;42.05;99824.02;1717114;83;21544;-43
2021/08/23 08:34:39;;;;;;;5.90;4.00;;;;;;;25.67;40.68;99822.60;1722156;83;21091;-43
2021/08/23 08:37:06;;;;;;;5.25;3.70;;;;;;;25.68;40.06;99822.16;1724612;83;21033;-43
2021/08/23 08:39:33;;;;;;;5.25;3.55;;;;;;;25.66;39.43;99819.69;1724286;83;21899;-43
2021/08/23 08:41:59;;;;;;;4.67;3.47;;;;;;;25.63;40.13;99813.62;1723441;83;20962;-43
2021/08/23 08:44:28;;;;;;;4.53;3.52;;;;;;;25.61;39.98;99800.19;1724400;83;21097;-43
2021/08/23 08:46:56;;;;;;;5.03;3.70;;;;;;;25.73;39.55;99809.70;1724430;83;21061;-43
2021/08/23 08:49:23;;;;;;;4.72;3.52;;;;;;;25.81;39.93;99802.65;1724435;83;20945;-43
2021/08/23 08:51:49;;;;;;;5.00;3.60;;;;;;;25.98;40.39;99805.41;1661669;86;21076;-43
2021/08/23 08:54:16;;;;;;;5.80;3.70;;;;;;;26.16;40.46;99797.17;1721746;83;21033;-44
2021/08/23 08:56:42;;;;;;;6.70;4.30;;;;;;;26.30;39.91;99795.27;1685553;84;21082;-43
2021/08/23 08:59:09;;;;;;;4.53;3.90;;;;;;;26.40;40.27;99798.87;1718840;83;21121;-43
2021/08/23 09:01:36;;;;;;;4.28;3.62;;;;;;;26.41;39.56;99799.03;1684768;84;21799;-43
2021/08/23 09:04:05;;;;;;;5.25;3.77;;;;;;;26.38;39.68;99799.95;1690438;84;21105;-43
2021/08/23 09:06:39;;;;;;;4.45;3.70;;;;;;;26.29;37.86;99799.27;1690236;84;20998;-43
2021/08/23 09:09:11;;;;;;;3.85;3.35;;;;;;;26.08;37.64;99798.68;1721565;83;21064;-43
2021/08/23 09:11:41;;;;;;;4.55;3.62;;;;;;;25.95;38.55;99799.34;1720654;82;21945;-43
2021/08/23 09:14:09;;;;;;;;;;;;;;;25.89;38.24;99792.85;1735519;82;21045;-43
2021/08/23 09:16:39;;;;;;;5.35;3.40;;;;;;;25.90;39.47;99791.62;1738082;82;20088;-43
2021/08/23 09:19:07;;;;;;;;;;;;;;;25.93;39.75;99795.66;1675919;83;21045;-43
2021/08/23 09:21:40;;;;;;;4.12;3.37;;;;;;;26.09;40.04;99791.90;1674269;84;20701;-43
2021/08/23 09:24:18;;;;;;;3.55;2.85;;;;;;;26.12;38.91;99792.38;1718270;83;21195;-43
2021/08/23 09:26:45;;;;;;;3.67;3.20;;;;;;;26.23;36.82;99786.44;1698197;82;20897;-43
2021/08/23 09:29:11;;;;;;;3.25;2.95;;;;;;;26.23;36.11;99780.88;1732283;82;21039;-43
2021/08/23 09:31:41;;;;;;;3.65;3.02;;;;;;;26.27;36.41;99782.91;1697063;84;21523;-43
2021/08/23 09:34:10;;;;;;;4.83;3.40;;;;;;;26.37;36.15;99769.98;1720313;82;21032;-43
2021/08/23 09:36:36;;;;;;;3.30;3.00;;;;;;;26.59;35.64;99763.56;1724339;82;21144;-43
2021/08/23 09:39:16;;;;;;;4.15;3.42;;;;;;;26.72;36.00;99758.04;1728781;82;20912;-43
2021/08/23 09:41:44;;;;;;;3.52;3.20;;;;;;;26.82;35.85;99761.61;1736156;82;21573;-43
2021/08/23 09:44:13;;;;;;;4.87;3.58;;;;;;;26.90;35.28;99755.97;1722635;82;20951;-43
2021/08/23 09:46:42;;;;;;;3.72;3.33;;;;;;;26.90;34.37;99752.41;1745945;82;21052;-43
2021/08/23 09:49:10;;;;;;;3.45;3.12;;;;;;;26.93;34.73;99759.20;1744518;80;21867;-43
2021/08/23 09:51:39;;;;;;;7.97;3.23;;;;;;;27.08;35.32;99755.98;1735844;82;21521;-43
2021/08/23 09:54:15;;;;;;;3.87;3.47;;;;;;;27.30;35.81;99753.08;1727492;82;21052;-43
2021/08/23 09:56:51;;;;;;;4.55;3.20;;;;;;;27.50;35.62;99756.17;1726291;82;21858;-43
2021/08/23 09:59:24;;;;;;;4.47;3.45;;;;;;;27.66;33.99;99756.47;1715900;82;21039;-43
2021/08/23 10:01:53;;;;;;;5.10;3.47;;;;;;;27.73;33.91;99758.95;1713937;83;21146;-43
2021/08/23 10:04:21;;;;;;;4.20;3.17;;;;;;;27.82;33.73;99763.12;1725317;82;21057;-43
2021/08/23 10:06:49;;;;;;;3.30;3.00;;;;;;;27.97;33.99;99757.67;1736440;82;21004;-43
2021/08/23 10:09:24;;;;;;;3.65;3.17;;;;;;;28.05;34.29;99752.69;1739473;82;20933;-43
2021/08/23 10:11:57;;;;;;;4.50;3.37;;;;;;;28.13;34.38;99761.50;1722398;82;21475;-44
2021/08/23 10:14:25;;;;;;;3.72;2.85;;;;;;;28.12;34.65;99767.57;1718788;82;21147;-43
2021/08/23 10:16:51;;;;;;;3.62;3.02;;;;;;;28.05;33.84;99761.66;1708289;82;21684;-43
2021/08/23 10:19:18;;;;;;;5.37;3.20;;;;;;;27.96;33.20;99766.64;1715208;82;21010;-44
2021/08/23 10:21:50;;;;;;;5.25;3.40;;;;;;;27.90;33.90;99764.95;1737179;82;21021;-43
2021/08/23 10:24:28;;;;;;;5.00;3.70;;;;;;;27.87;34.90;99769.45;1736252;82;21086;-43
2021/08/23 10:26:55;;;;;;;4.10;3.02;;;;;;;27.81;34.88;99764.35;1723820;82;21769;-43
2021/08/23 10:29:22;;;;;;;4.37;3.30;;;;;;;27.79;36.63;99771.00;1719555;82;21024;-43
2021/08/23 10:31:48;;;;;;;3.37;3.08;;;;;;;27.84;35.31;99767.58;1736300;81;21032;-43
2021/08/23 10:34:24;;;;;;;5.40;3.15;;;;;;;27.91;34.64;99764.48;1722366;82;21050;-43
2021/08/23 10:36:50;;;;;;;4.20;3.40;;;;;;;27.99;34.59;99758.73;1724019;82;21036;-44
2021/08/23 10:39:25;;;;;;;4.45;3.30;;;;;;;28.09;33.88;99758.86;1707847;84;21892;-43
2021/08/23 10:41:53;;;;;;;4.87;3.20;;;;;;;28.19;34.24;99762.42;1726627;82;20953;-43
2021/08/23 10:44:31;;;;;;;3.20;2.90;;;;;;;28.32;34.24;99762.24;1712984;82;21066;-44
2021/08/23 10:47:09;;;;;;;4.85;3.37;;;;;;;28.42;33.43;99768.68;1722225;82;21035;-43
2021/08/23 10:49:43;;;;;;;4.53;3.40;;;;;;;28.37;32.73;99758.81;1711397;82;21024;-43
2021/08/23 10:52:11;;;;;;;4.17;3.42;;;;;;;28.30;32.59;99758.52;1710013;82;21827;-44
2021/08/23 10:54:43;;;;;;;3.80;3.20;;;;;;;28.40;32.00;99760.65;1712736;82;21029;-44
2021/08/23 10:57:12;;;;;;;5.40;3.85;;;;;;;28.62;32.13;99768.12;1725166;82;21012;-44
2021/08/23 10:59:54;;;;;;;3.75;3.35;;;;;;;28.84;31.89;99763.72;1717061;81;21032;-44
2021/08/23 11:02:33;;;;;;;3.92;3.50;;;;;;;28.97;31.33;99762.07;1726992;82;21072;-44
2021/08/23 11:05:20;;;;;;;3.70;3.25;;;;;;;29.00;30.90;99756.30;1715303;82;21168;-44
2021/08/23 11:07:48;;;;;;;3.85;3.40;;;;;;;28.96;30.87;99758.50;1685326;82;21479;-44
2021/08/23 11:10:17;;;;;;;5.03;3.17;;;;;;;28.83;31.38;99753.79;1734438;82;21892;-44
2021/08/23 11:12:57;;;;;;;4.67;3.60;;;;;;;28.44;31.46;99751.48;1735122;82;21562;-44
2021/08/23 11:15:32;;;;;;;3.27;2.95;;;;;;;28.44;31.46;99751.48;1724384;82;21067;-44
2021/08/23 11:18:06;;;;;;;3.22;2.80;;;;;;;28.29;31.53;99754.80;1727766;82;21134;-44
2021/08/23 11:20:40;;;;;;;3.85;3.02;;;;;;;28.23;30.71;99750.48;1714930;82;20919;-44
2021/08/23 11:23:11;;;;;;;5.03;3.50;;;;;;;28.23;30.64;99753.88;1751434;80;21570;-44
2021/08/23 11:25:48;;;;;;;4.15;3.00;;;;;;;28.26;30.07;99751.56;1733185;80;21549;-44
2021/08/23 11:28:26;;;;;;;3.70;2.73;;;;;;;28.24;30.43;99754.05;1735999;82;21095;-44
2021/08/23 11:30:54;;;;;;;4.85;3.40;;;;;;;28.21;31.50;99754.38;1744083;82;22023;-44
2021/08/23 11:33:31;;;;;;;4.33;3.30;;;;;;;28.28;31.83;99751.85;1731232;81;21737;-44